createdAt,value
2023-01-20T00:00:33.839Z,2.40
2023-01-20T00:03:36.227Z,2.27
2023-01-20T00:06:38.419Z,2.67
2023-01-20T00:09:40.566Z,1.92
2023-01-20T00:12:42.664Z,3.03
2023-01-20T00:15:44.797Z,2.38
2023-01-20T00:18:47.005Z,3.22
2023-01-20T00:21:49.641Z,3.80
2023-01-20T00:24:51.756Z,5.33
2023-01-20T00:27:53.945Z,6.30
2023-01-20T00:30:56.198Z,4.75
2023-01-20T00:33:59.686Z,7.30
2023-01-20T00:37:01.739Z,5.43
2023-01-20T00:40:04.137Z,5.72
2023-01-20T00:43:06.432Z,6.40
2023-01-20T00:46:08.910Z,6.18
2023-01-20T00:49:11.290Z,5.83
2023-01-20T00:52:13.612Z,5.45
2023-01-20T00:55:16.041Z,6.38
2023-01-20T00:58:18.305Z,5.82
2023-01-20T01:01:20.939Z,7.13
2023-01-20T01:04:23.325Z,6.20
2023-01-20T01:07:25.412Z,7.53
2023-01-20T01:10:27.540Z,6.53
2023-01-20T01:13:29.631Z,5.13
2023-01-20T01:16:31.785Z,5.67
2023-01-20T01:19:34.000Z,5.10
2023-01-20T01:22:36.101Z,4.57
2023-01-20T01:25:38.277Z,6.10
2023-01-20T01:28:40.597Z,4.13
2023-01-20T01:31:42.757Z,4.35
2023-01-20T01:34:44.809Z,4.32
2023-01-20T01:37:46.977Z,4.87
2023-01-20T01:40:53.265Z,1.88
2023-01-20T01:44:00.471Z,3.95
2023-01-20T01:47:02.932Z,4.68
2023-01-20T01:50:05.634Z,4.83
2023-01-20T01:53:08.375Z,4.65
2023-01-20T01:56:11.661Z,5.55
2023-01-20T01:59:14.341Z,5.35
2023-01-20T02:02:20.435Z,6.93
2023-01-20T02:05:27.247Z,6.28
2023-01-20T02:08:29.767Z,6.03
2023-01-20T02:11:35.420Z,5.30
2023-01-20T02:14:41.348Z,5.50
2023-01-20T02:17:43.401Z,4.68
2023-01-20T02:20:48.480Z,5.78
2023-01-20T02:24:06.400Z,6.82
2023-01-20T02:27:09.917Z,7.07
2023-01-20T02:30:12.241Z,6.80
2023-01-20T02:33:26.266Z,4.75
2023-01-20T02:36:38.623Z,4.22
2023-01-20T02:40:01.011Z,5.10
2023-01-20T02:43:11.260Z,5.03
2023-01-20T02:46:19.406Z,4.82
2023-01-20T02:49:28.457Z,3.72
2023-01-20T02:52:36.113Z,5.30
2023-01-20T02:55:40.747Z,5.70
2023-01-20T02:58:47.672Z,5.88
2023-01-20T03:02:08.917Z,6.47
2023-01-20T03:05:14.329Z,6.17
2023-01-20T03:08:17.578Z,6.82
2023-01-20T03:11:20.176Z,7.43
2023-01-20T03:14:22.523Z,9.02
2023-01-20T03:17:24.740Z,9.47
2023-01-20T03:20:26.897Z,9.02
2023-01-20T03:23:30.705Z,11.02
2023-01-20T03:26:33.087Z,11.90
2023-01-20T03:29:35.510Z,12.23
2023-01-20T03:32:37.880Z,10.98
2023-01-20T03:35:40.834Z,9.45
2023-01-20T03:38:44.147Z,9.15
2023-01-20T03:42:01.004Z,8.67
2023-01-20T03:45:06.928Z,9.20
2023-01-20T03:48:14.620Z,7.18
2023-01-20T03:51:16.715Z,6.53
2023-01-20T03:54:22.677Z,9.40
2023-01-20T03:57:32.589Z,11.10
2023-01-20T04:00:36.414Z,9.85
2023-01-20T04:03:40.234Z,10.82
2023-01-20T04:06:43.807Z,11.17
2023-01-20T04:09:48.020Z,9.27
2023-01-20T04:12:50.169Z,11.73
2023-01-20T04:15:52.407Z,12.57
2023-01-20T04:18:54.768Z,13.00
2023-01-20T04:22:11.963Z,28.60
2023-01-20T04:25:15.647Z,9.40
2023-01-20T04:28:17.847Z,5.93
2023-01-20T04:31:30.140Z,24.87
2023-01-20T04:34:33.386Z,7.47
2023-01-20T04:37:35.516Z,7.45
2023-01-20T04:40:37.802Z,12.05
2023-01-20T04:43:43.007Z,11.40
2023-01-20T04:46:47.341Z,18.25
2023-01-20T04:49:49.521Z,18.73
2023-01-20T04:52:54.563Z,19.85
2023-01-20T04:55:56.735Z,12.97
2023-01-20T04:58:59.165Z,18.05
2023-01-20T05:02:01.408Z,15.43
2023-01-20T05:05:03.729Z,14.38
2023-01-20T05:08:06.167Z,15.27
2023-01-20T05:11:08.360Z,14.35
2023-01-20T05:14:11.251Z,14.25
2023-01-20T05:17:13.370Z,11.25
2023-01-20T05:20:15.785Z,10.43
2023-01-20T05:23:17.963Z,17.85
2023-01-20T05:26:20.404Z,20.52
2023-01-20T05:29:22.612Z,6.70
2023-01-20T05:32:24.761Z,17.23
2023-01-20T05:35:26.903Z,30.45
2023-01-20T05:38:29.433Z,25.75
2023-01-20T05:41:31.602Z,19.95
2023-01-20T05:44:33.817Z,19.60
2023-01-20T05:47:36.140Z,19.85
2023-01-20T05:50:38.455Z,44.92
2023-01-20T05:53:40.629Z,42.93
2023-01-20T05:56:42.719Z,24.20
2023-01-20T05:59:48.465Z,18.33
2023-01-20T06:02:50.855Z,29.40
2023-01-20T06:05:52.965Z,24.47
2023-01-20T06:08:55.152Z,23.70
2023-01-20T06:11:57.359Z,21.92
2023-01-20T06:14:59.543Z,22.80
2023-01-20T06:18:01.768Z,23.73
2023-01-20T06:21:04.042Z,25.10
2023-01-20T06:24:06.795Z,25.67
2023-01-20T06:27:09.679Z,22.08
2023-01-20T06:30:12.191Z,23.57
2023-01-20T06:33:14.478Z,26.02
2023-01-20T06:36:17.773Z,19.92
2023-01-20T06:39:20.074Z,22.40
2023-01-20T06:42:22.790Z,24.50
2023-01-20T06:45:25.142Z,24.90
2023-01-20T06:48:27.933Z,24.25
2023-01-20T06:51:30.675Z,23.67
2023-01-20T06:54:32.995Z,24.73
2023-01-20T06:57:35.229Z,27.98
2023-01-20T07:00:38.053Z,56.17
2023-01-20T07:03:43.754Z,56.23
2023-01-20T07:06:46.189Z,63.05
2023-01-20T07:09:48.615Z,126.95
2023-01-20T07:12:51.039Z,128.23
2023-01-20T07:15:53.300Z,138.40
2023-01-20T07:18:55.479Z,57.83
2023-01-20T07:21:57.666Z,59.35
2023-01-20T07:25:00.144Z,39.10
2023-01-20T07:28:02.298Z,56.60
2023-01-20T07:31:05.541Z,36.90
2023-01-20T07:34:07.773Z,44.05
2023-01-20T07:37:09.962Z,25.83
2023-01-20T07:40:12.780Z,22.05
2023-01-20T07:43:15.284Z,23.10
2023-01-20T07:46:17.866Z,24.98
2023-01-20T07:49:20.332Z,25.60
2023-01-20T07:52:22.708Z,18.67
2023-01-20T07:55:26.756Z,28.65
2023-01-20T07:58:32.798Z,29.93
2023-01-20T08:01:39.184Z,29.55
2023-01-20T08:04:47.349Z,20.90
2023-01-20T08:07:52.108Z,21.48
2023-01-20T08:10:55.919Z,22.30
2023-01-20T08:13:58.202Z,27.27
2023-01-20T08:17:00.463Z,27.10
2023-01-20T08:24:45.280Z,19.35
2023-01-20T08:27:48.154Z,22.50
2023-01-20T08:30:50.504Z,18.73
2023-01-20T08:33:56.038Z,25.30
2023-01-20T08:36:58.180Z,34.75
2023-01-20T08:40:00.436Z,31.30
2023-01-20T08:43:02.790Z,31.67
2023-01-20T08:46:07.139Z,30.73
2023-01-20T08:49:10.911Z,17.10
2023-01-20T08:52:13.234Z,19.50
2023-01-20T08:55:16.105Z,17.83
2023-01-20T08:58:18.476Z,20.95
2023-01-20T09:01:22.157Z,18.90
2023-01-20T09:04:24.853Z,25.93
2023-01-20T09:07:27.208Z,21.48
2023-01-20T09:10:32.136Z,21.35
2023-01-20T09:13:34.651Z,22.10
2023-01-20T09:16:36.949Z,21.20
2023-01-20T09:19:48.352Z,17.95
2023-01-20T09:22:50.770Z,32.28
2023-01-20T09:25:53.240Z,30.73
2023-01-20T09:28:55.699Z,26.20
2023-01-20T09:31:58.348Z,21.88
2023-01-20T09:35:00.732Z,33.03
2023-01-20T09:38:21.785Z,34.00
2023-01-20T09:41:50.054Z,20.15
2023-01-20T09:45:10.697Z,22.88
2023-01-20T09:48:35.719Z,23.50
2023-01-20T09:51:56.589Z,26.10
2023-01-20T09:55:09.771Z,21.00
2023-01-20T09:58:19.017Z,24.88
2023-01-20T10:01:21.306Z,23.20
2023-01-20T10:04:37.263Z,19.85
2023-01-20T10:07:46.271Z,21.25
2023-01-20T10:10:52.172Z,23.35
2023-01-20T10:14:08.117Z,24.63
2023-01-20T10:17:30.683Z,15.02
2023-01-20T10:20:35.772Z,28.70
2023-01-20T10:23:51.613Z,20.80
2023-01-20T10:26:57.656Z,19.98
2023-01-20T10:30:09.389Z,21.80
2023-01-20T10:33:13.432Z,29.90
2023-01-20T10:36:21.723Z,27.10
2023-01-20T10:39:35.276Z,23.08
2023-01-20T10:42:37.764Z,29.58
2023-01-20T10:45:58.993Z,22.83
2023-01-20T10:49:04.865Z,34.17
2023-01-20T10:52:19.463Z,27.00
2023-01-20T10:55:21.831Z,25.75
2023-01-20T11:03:06.507Z,24.70
2023-01-20T11:06:16.589Z,24.42
2023-01-20T11:09:35.415Z,26.77
2023-01-20T11:12:40.267Z,24.70
2023-01-20T11:15:47.438Z,25.83
2023-01-20T11:19:00.452Z,29.92
2023-01-20T11:22:13.533Z,30.63
2023-01-20T11:25:26.807Z,20.60
2023-01-20T11:28:36.957Z,25.48
2023-01-20T11:31:42.463Z,23.98
2023-01-20T11:34:49.124Z,28.08
2023-01-20T11:37:52.215Z,43.40
2023-01-20T11:40:56.282Z,33.40
2023-01-20T11:50:15.039Z,27.98
2023-01-20T11:53:19.070Z,24.83
2023-01-20T12:01:57.903Z,39.05
2023-01-20T12:05:00.102Z,32.53
2023-01-20T12:09:09.868Z,39.70
2023-01-20T12:12:47.882Z,31.93
2023-01-20T12:15:54.871Z,32.03
2023-01-20T12:19:02.795Z,30.52
2023-01-20T12:22:12.316Z,30.52
2023-01-20T12:25:20.053Z,28.53
2023-01-20T12:28:31.601Z,28.15
2023-01-20T12:31:34.449Z,30.23
2023-01-20T12:34:36.827Z,23.33
2023-01-20T12:37:44.719Z,27.20
2023-01-20T12:40:52.698Z,25.98
2023-01-20T12:44:08.775Z,21.60
2023-01-20T12:48:06.662Z,22.87
2023-01-20T12:51:11.885Z,30.67
2023-01-20T12:54:19.470Z,19.60
2023-01-20T12:57:21.849Z,28.73
2023-01-20T13:00:42.937Z,19.75
2023-01-20T13:03:48.491Z,21.52
2023-01-20T13:06:58.668Z,30.88
2023-01-20T13:10:19.807Z,22.53
2023-01-20T13:13:45.136Z,22.73
2023-01-20T13:17:13.153Z,22.33
2023-01-20T13:20:22.992Z,21.23
2023-01-20T13:23:26.389Z,23.58
2023-01-20T13:26:32.632Z,19.08
2023-01-20T13:29:35.046Z,25.92
2023-01-20T13:32:42.114Z,20.42
2023-01-20T13:35:44.579Z,21.27
2023-01-20T13:39:07.359Z,21.10
2023-01-20T13:42:27.694Z,22.07
2023-01-20T13:45:29.859Z,24.20
2023-01-20T13:48:33.802Z,20.80
2023-01-20T13:51:36.011Z,19.67
2023-01-20T13:54:41.497Z,23.90
2023-01-20T13:57:43.751Z,22.30
2023-01-20T14:00:47.764Z,20.40
2023-01-20T14:04:16.199Z,19.00
2023-01-20T14:07:23.160Z,18.38
2023-01-20T14:10:25.894Z,15.75
2023-01-20T14:13:27.984Z,18.97
2023-01-20T14:16:36.566Z,16.45
2023-01-20T14:19:38.983Z,21.77
2023-01-20T14:22:41.243Z,18.88
2023-01-20T14:25:43.493Z,18.75
2023-01-20T14:28:56.062Z,17.13
2023-01-20T14:31:58.363Z,17.30
2023-01-20T14:35:01.327Z,16.43
2023-01-20T14:38:03.576Z,17.20
2023-01-20T14:41:05.791Z,20.95
2023-01-20T14:44:17.305Z,16.05
2023-01-20T14:47:22.828Z,27.57
2023-01-20T14:50:25.389Z,20.83
2023-01-20T14:53:27.529Z,21.88
2023-01-20T14:56:29.657Z,21.47
2023-01-20T14:59:31.885Z,23.40
2023-01-20T15:02:35.476Z,18.85
2023-01-20T15:05:39.298Z,12.55
2023-01-20T15:08:56.769Z,17.43
2023-01-20T15:12:21.728Z,16.38
2023-01-20T15:15:28.241Z,11.98
2023-01-20T15:18:30.523Z,13.95
2023-01-20T15:21:35.429Z,16.92
2023-01-20T15:24:37.560Z,15.98
2023-01-20T15:27:42.833Z,13.30
2023-01-20T15:30:45.147Z,13.53
2023-01-20T15:33:47.808Z,10.18
2023-01-20T15:36:51.098Z,14.02
2023-01-20T15:39:54.353Z,10.60
2023-01-20T15:42:57.552Z,13.17
2023-01-20T15:45:59.693Z,17.00
2023-01-20T15:49:02.234Z,9.40
2023-01-20T15:52:04.398Z,11.25
2023-01-20T15:55:06.634Z,13.85
2023-01-20T15:58:22.753Z,12.27
2023-01-20T16:01:25.738Z,8.68
2023-01-20T16:04:28.799Z,16.67
2023-01-20T16:07:30.850Z,11.18
2023-01-20T16:10:33.856Z,8.57
2023-01-20T16:13:36.196Z,7.15
2023-01-20T16:16:38.407Z,8.80
2023-01-20T16:19:41.120Z,10.07
2023-01-20T16:22:43.320Z,7.10
2023-01-20T16:25:45.831Z,9.17
2023-01-20T16:28:48.509Z,10.85
2023-01-20T16:31:53.987Z,8.88
2023-01-20T16:34:57.684Z,9.63
2023-01-20T16:38:01.147Z,8.48
2023-01-20T16:41:23.971Z,9.32
2023-01-20T16:44:26.248Z,6.43
2023-01-20T16:47:28.506Z,8.18
2023-01-20T16:50:31.195Z,5.63
2023-01-20T16:53:33.812Z,6.25
2023-01-20T16:56:35.978Z,6.40
2023-01-20T16:59:38.020Z,6.82
2023-01-20T17:02:40.400Z,7.60
2023-01-20T17:05:42.796Z,6.13
2023-01-20T17:08:46.892Z,5.57
2023-01-20T17:11:49.084Z,7.57
2023-01-20T17:14:51.248Z,7.22
2023-01-20T17:17:58.423Z,11.82
2023-01-20T17:21:07.546Z,9.27
2023-01-20T17:24:11.439Z,7.93
2023-01-20T17:27:13.531Z,10.60
2023-01-20T17:30:16.549Z,10.82
2023-01-20T17:33:18.899Z,9.88
2023-01-20T17:36:20.984Z,8.75
2023-01-20T17:39:23.055Z,10.75
2023-01-20T17:42:25.089Z,9.55
2023-01-20T17:45:30.740Z,11.00
2023-01-20T17:48:33.190Z,9.00
2023-01-20T17:51:36.071Z,8.45
2023-01-20T17:54:38.686Z,8.48
2023-01-20T17:57:40.818Z,8.45
2023-01-20T18:00:43.151Z,6.25
2023-01-20T18:03:46.404Z,8.50
2023-01-20T18:06:48.581Z,4.63
2023-01-20T18:09:50.699Z,6.37
2023-01-20T18:12:52.988Z,6.95
2023-01-20T18:15:55.137Z,8.57
2023-01-20T18:18:59.165Z,8.67
2023-01-20T18:22:06.824Z,6.85
2023-01-20T18:25:09.306Z,8.32
2023-01-20T18:28:12.625Z,9.15
2023-01-20T18:31:17.325Z,8.97
2023-01-20T18:34:19.564Z,8.02
2023-01-20T18:37:21.658Z,7.45
2023-01-20T18:40:24.056Z,13.18
2023-01-20T18:43:26.177Z,6.30
2023-01-20T18:46:28.473Z,4.82
2023-01-20T18:49:30.782Z,7.05
2023-01-20T18:52:33.364Z,6.10
2023-01-20T18:55:35.443Z,6.72
2023-01-20T18:58:38.521Z,6.90
2023-01-20T19:01:41.971Z,6.30
2023-01-20T19:04:44.449Z,6.53
2023-01-20T19:07:50.069Z,6.57
2023-01-20T19:10:52.420Z,6.38
2023-01-20T19:13:55.074Z,6.55
2023-01-20T19:16:57.146Z,4.88
2023-01-20T19:19:59.293Z,8.40
2023-01-20T19:23:01.545Z,7.67
2023-01-20T19:26:09.264Z,7.32
2023-01-20T19:29:12.667Z,6.28
2023-01-20T19:32:15.639Z,6.97
2023-01-20T19:35:17.983Z,9.27
2023-01-20T19:38:20.364Z,6.05
2023-01-20T19:41:25.712Z,9.43
2023-01-20T19:44:30.687Z,3.22
2023-01-20T19:47:34.173Z,6.28
2023-01-20T19:50:36.824Z,9.35
2023-01-20T19:53:40.040Z,5.83
2023-01-20T19:56:42.160Z,5.93
2023-01-20T19:59:45.006Z,7.30
2023-01-20T20:02:47.196Z,6.90
2023-01-20T20:05:50.936Z,3.80
2023-01-20T20:08:54.053Z,4.43
2023-01-20T20:11:57.746Z,3.47
2023-01-20T20:15:00.068Z,5.40
2023-01-20T20:18:02.464Z,3.92
2023-01-20T20:21:05.971Z,6.47
2023-01-20T20:24:11.153Z,3.13
2023-01-20T20:27:13.749Z,2.60
2023-01-20T20:30:16.532Z,4.75
2023-01-20T20:33:19.274Z,6.15
2023-01-20T20:36:21.688Z,4.57
2023-01-20T20:39:24.355Z,4.07
2023-01-20T20:42:27.328Z,6.18
2023-01-20T20:45:29.626Z,4.47
2023-01-20T20:48:33.537Z,3.40
2023-01-20T20:51:36.135Z,6.18
2023-01-20T20:54:38.501Z,2.83
2023-01-20T20:57:40.867Z,2.88
2023-01-20T21:00:43.524Z,4.60
2023-01-20T21:03:46.725Z,2.65
2023-01-20T21:06:49.106Z,9.73
2023-01-20T21:09:52.133Z,15.00
2023-01-20T21:12:57.696Z,7.32
2023-01-20T21:16:01.572Z,9.98
2023-01-20T21:19:05.221Z,3.97
2023-01-20T21:22:07.409Z,4.57
2023-01-20T21:25:09.708Z,6.85
2023-01-20T21:28:11.848Z,9.03
2023-01-20T21:31:16.498Z,16.95
2023-01-20T21:34:18.670Z,4.35
2023-01-20T21:37:21.123Z,5.30
2023-01-20T21:40:23.618Z,8.70
2023-01-20T21:43:45.560Z,9.18
2023-01-20T21:46:49.393Z,2.35
2023-01-20T21:50:10.464Z,3.92
2023-01-20T21:53:14.128Z,5.13
2023-01-20T21:56:16.422Z,2.90
2023-01-20T21:59:18.529Z,2.73
2023-01-20T22:02:20.914Z,2.85
2023-01-20T22:05:23.004Z,3.80
2023-01-20T22:08:25.044Z,2.03
2023-01-20T22:11:27.618Z,5.00
2023-01-20T22:14:32.321Z,16.20
2023-01-20T22:17:34.566Z,5.57
2023-01-20T22:20:36.976Z,3.85
2023-01-20T22:23:39.212Z,5.78
2023-01-20T22:26:41.370Z,6.57
2023-01-20T22:29:43.439Z,4.33
2023-01-20T22:32:45.534Z,7.32
2023-01-20T22:35:47.992Z,2.95
2023-01-20T22:38:51.611Z,3.47
2023-01-20T22:41:54.164Z,2.00
2023-01-20T22:44:56.273Z,5.25
2023-01-20T22:47:58.356Z,3.65
2023-01-20T22:51:08.628Z,2.53
2023-01-20T22:54:11.380Z,4.45
2023-01-20T22:57:13.474Z,2.35
2023-01-20T23:00:16.133Z,2.77
2023-01-20T23:03:19.690Z,2.60
2023-01-20T23:06:22.447Z,2.63
2023-01-20T23:09:24.722Z,3.08
2023-01-20T23:12:28.138Z,3.10
2023-01-20T23:15:30.246Z,2.25
2023-01-20T23:18:32.502Z,2.50
2023-01-20T23:21:34.725Z,2.43
2023-01-20T23:24:37.018Z,3.95
2023-01-20T23:27:39.105Z,1.95
2023-01-20T23:30:41.330Z,1.80
2023-01-20T23:33:44.199Z,2.33
2023-01-20T23:36:46.449Z,1.55
2023-01-20T23:39:52.404Z,1.15
2023-01-20T23:42:54.479Z,2.33
2023-01-20T23:45:58.074Z,2.13
2023-01-20T23:49:00.396Z,2.38
2023-01-20T23:52:02.615Z,1.50
2023-01-20T23:55:05.053Z,1.55
2023-01-20T23:58:07.179Z,1.63
